sensor_id;sensor_type;location;lat;lon;timestamp;temperature;humidity
78461;SHT31;67755;51.986;5.696;2024-03-06T00:00:06;10.7;63.5
78461;SHT31;67755;51.986;5.696;2024-03-06T00:02:35;10.7;63.5
78461;SHT31;67755;51.986;5.696;2024-03-06T00:05:04;10.7;63.5
78461;SHT31;67755;51.986;5.696;2024-03-06T00:07:34;10.7;63.5
78461;SHT31;67755;51.986;5.696;2024-03-06T00:10:03;10.6;63.5
78461;SHT31;67755;51.986;5.696;2024-03-06T00:12:32;10.6;63.4
78461;SHT31;67755;51.986;5.696;2024-03-06T00:15:02;10.6;63.3
78461;SHT31;67755;51.986;5.696;2024-03-06T00:17:31;10.6;63.2
78461;SHT31;67755;51.986;5.696;2024-03-06T00:19:59;10.6;63.1
78461;SHT31;67755;51.986;5.696;2024-03-06T00:22:31;10.6;62.9
78461;SHT31;67755;51.986;5.696;2024-03-06T00:25:00;10.6;62.8
78461;SHT31;67755;51.986;5.696;2024-03-06T00:27:29;10.5;63.1
78461;SHT31;67755;51.986;5.696;2024-03-06T00:29:57;10.5;63.0
78461;SHT31;67755;51.986;5.696;2024-03-06T00:32:26;10.5;63.1
78461;SHT31;67755;51.986;5.696;2024-03-06T00:34:55;10.5;62.7
78461;SHT31;67755;51.986;5.696;2024-03-06T00:37:23;10.5;62.5
78461;SHT31;67755;51.986;5.696;2024-03-06T00:39:52;10.4;62.7
78461;SHT31;67755;51.986;5.696;2024-03-06T00:42:23;10.4;62.7
78461;SHT31;67755;51.986;5.696;2024-03-06T00:44:51;10.4;62.8
78461;SHT31;67755;51.986;5.696;2024-03-06T00:47:19;10.4;62.6
78461;SHT31;67755;51.986;5.696;2024-03-06T00:49:48;10.4;62.6
78461;SHT31;67755;51.986;5.696;2024-03-06T00:52:17;10.3;62.5
78461;SHT31;67755;51.986;5.696;2024-03-06T00:54:45;10.3;62.4
78461;SHT31;67755;51.986;5.696;2024-03-06T00:57:14;10.3;62.5
78461;SHT31;67755;51.986;5.696;2024-03-06T00:59:42;10.3;62.5
78461;SHT31;67755;51.986;5.696;2024-03-06T01:02:11;10.3;62.5
78461;SHT31;67755;51.986;5.696;2024-03-06T01:04:40;10.2;62.5
78461;SHT31;67755;51.986;5.696;2024-03-06T01:07:09;10.2;62.4
78461;SHT31;67755;51.986;5.696;2024-03-06T01:09:37;10.2;62.7
78461;SHT31;67755;51.986;5.696;2024-03-06T01:12:06;10.2;63.0
78461;SHT31;67755;51.986;5.696;2024-03-06T01:14:35;10.2;62.9
78461;SHT31;67755;51.986;5.696;2024-03-06T01:17:03;10.1;63.1
78461;SHT31;67755;51.986;5.696;2024-03-06T01:19:34;10.1;63.0
78461;SHT31;67755;51.986;5.696;2024-03-06T01:22:03;10.1;63.0
78461;SHT31;67755;51.986;5.696;2024-03-06T01:24:32;10.1;62.8
78461;SHT31;67755;51.986;5.696;2024-03-06T01:27:02;10.1;62.9
78461;SHT31;67755;51.986;5.696;2024-03-06T01:29:30;10.1;62.5
78461;SHT31;67755;51.986;5.696;2024-03-06T01:31:59;10.1;62.6
78461;SHT31;67755;51.986;5.696;2024-03-06T01:34:28;10.0;62.7
78461;SHT31;67755;51.986;5.696;2024-03-06T01:36:59;10.0;62.6
78461;SHT31;67755;51.986;5.696;2024-03-06T01:39:27;10.0;62.5
78461;SHT31;67755;51.986;5.696;2024-03-06T01:41:56;10.0;62.7
78461;SHT31;67755;51.986;5.696;2024-03-06T01:44:24;10.0;62.7
78461;SHT31;67755;51.986;5.696;2024-03-06T01:46:53;10.0;62.6
78461;SHT31;67755;51.986;5.696;2024-03-06T01:49:24;10.0;62.7
78461;SHT31;67755;51.986;5.696;2024-03-06T01:51:57;9.9;62.6
78461;SHT31;67755;51.986;5.696;2024-03-06T01:54:27;9.9;62.7
78461;SHT31;67755;51.986;5.696;2024-03-06T01:57:01;9.9;62.8
78461;SHT31;67755;51.986;5.696;2024-03-06T01:59:32;9.9;62.6
78461;SHT31;67755;51.986;5.696;2024-03-06T02:02:03;9.9;62.5
78461;SHT31;67755;51.986;5.696;2024-03-06T02:04:31;9.9;62.5
78461;SHT31;67755;51.986;5.696;2024-03-06T02:07:01;9.8;62.5
78461;SHT31;67755;51.986;5.696;2024-03-06T02:09:31;9.8;62.2
78461;SHT31;67755;51.986;5.696;2024-03-06T02:11:59;9.8;62.3
78461;SHT31;67755;51.986;5.696;2024-03-06T02:14:28;9.8;62.4
78461;SHT31;67755;51.986;5.696;2024-03-06T02:16:59;9.8;62.4
78461;SHT31;67755;51.986;5.696;2024-03-06T02:19:39;9.8;62.3
78461;SHT31;67755;51.986;5.696;2024-03-06T02:22:08;9.7;62.7
78461;SHT31;67755;51.986;5.696;2024-03-06T02:24:42;9.7;62.9
78461;SHT31;67755;51.986;5.696;2024-03-06T02:27:11;9.7;63.7
78461;SHT31;67755;51.986;5.696;2024-03-06T02:29:39;9.7;63.2
78461;SHT31;67755;51.986;5.696;2024-03-06T02:32:08;9.7;63.1
78461;SHT31;67755;51.986;5.696;2024-03-06T02:34:38;9.7;63.1
78461;SHT31;67755;51.986;5.696;2024-03-06T02:37:07;9.7;63.0
78461;SHT31;67755;51.986;5.696;2024-03-06T02:39:43;9.6;62.8
78461;SHT31;67755;51.986;5.696;2024-03-06T02:42:13;9.6;62.8
78461;SHT31;67755;51.986;5.696;2024-03-06T02:44:43;9.6;63.0
78461;SHT31;67755;51.986;5.696;2024-03-06T02:47:11;9.6;62.9
78461;SHT31;67755;51.986;5.696;2024-03-06T02:49:40;9.6;63.0
78461;SHT31;67755;51.986;5.696;2024-03-06T02:52:14;9.6;63.0
78461;SHT31;67755;51.986;5.696;2024-03-06T02:54:43;9.6;63.1
78461;SHT31;67755;51.986;5.696;2024-03-06T02:57:12;9.5;63.1
78461;SHT31;67755;51.986;5.696;2024-03-06T02:59:42;9.5;63.0
78461;SHT31;67755;51.986;5.696;2024-03-06T03:02:10;9.5;63.0
78461;SHT31;67755;51.986;5.696;2024-03-06T03:04:39;9.5;63.3
78461;SHT31;67755;51.986;5.696;2024-03-06T03:07:08;9.5;63.4
78461;SHT31;67755;51.986;5.696;2024-03-06T03:09:36;9.5;63.5
78461;SHT31;67755;51.986;5.696;2024-03-06T03:12:05;9.4;63.8
78461;SHT31;67755;51.986;5.696;2024-03-06T03:14:38;9.4;63.9
78461;SHT31;67755;51.986;5.696;2024-03-06T03:17:09;9.4;64.0
78461;SHT31;67755;51.986;5.696;2024-03-06T03:19:39;9.4;64.1
78461;SHT31;67755;51.986;5.696;2024-03-06T03:22:09;9.4;64.1
78461;SHT31;67755;51.986;5.696;2024-03-06T03:24:37;9.4;63.9
78461;SHT31;67755;51.986;5.696;2024-03-06T03:27:06;9.4;63.9
78461;SHT31;67755;51.986;5.696;2024-03-06T03:29:34;9.4;63.9
78461;SHT31;67755;51.986;5.696;2024-03-06T03:32:03;9.4;64.2
78461;SHT31;67755;51.986;5.696;2024-03-06T03:34:33;9.4;64.4
78461;SHT31;67755;51.986;5.696;2024-03-06T03:37:03;9.4;64.0
78461;SHT31;67755;51.986;5.696;2024-03-06T03:39:34;9.4;63.6
78461;SHT31;67755;51.986;5.696;2024-03-06T03:42:02;9.4;63.8
78461;SHT31;67755;51.986;5.696;2024-03-06T03:44:32;9.4;63.3
78461;SHT31;67755;51.986;5.696;2024-03-06T03:47:01;9.4;63.2
78461;SHT31;67755;51.986;5.696;2024-03-06T03:49:30;9.4;63.0
78461;SHT31;67755;51.986;5.696;2024-03-06T03:52:00;9.4;63.0
78461;SHT31;67755;51.986;5.696;2024-03-06T03:54:29;9.4;62.9
78461;SHT31;67755;51.986;5.696;2024-03-06T03:56:58;9.4;62.9
78461;SHT31;67755;51.986;5.696;2024-03-06T03:59:27;9.4;62.8
78461;SHT31;67755;51.986;5.696;2024-03-06T04:01:56;9.3;62.6
78461;SHT31;67755;51.986;5.696;2024-03-06T04:04:25;9.3;62.7
78461;SHT31;67755;51.986;5.696;2024-03-06T04:06:53;9.3;62.6
78461;SHT31;67755;51.986;5.696;2024-03-06T04:09:23;9.3;62.5
78461;SHT31;67755;51.986;5.696;2024-03-06T04:11:51;9.3;62.5
78461;SHT31;67755;51.986;5.696;2024-03-06T04:14:20;9.3;62.5
78461;SHT31;67755;51.986;5.696;2024-03-06T04:16:49;9.3;62.6
78461;SHT31;67755;51.986;5.696;2024-03-06T04:19:17;9.3;62.6
78461;SHT31;67755;51.986;5.696;2024-03-06T04:21:46;9.3;62.8
78461;SHT31;67755;51.986;5.696;2024-03-06T04:24:14;9.3;62.7
78461;SHT31;67755;51.986;5.696;2024-03-06T04:26:43;9.2;62.8
78461;SHT31;67755;51.986;5.696;2024-03-06T04:29:11;9.2;63.3
78461;SHT31;67755;51.986;5.696;2024-03-06T04:31:43;9.2;62.9
78461;SHT31;67755;51.986;5.696;2024-03-06T04:34:12;9.2;62.9
78461;SHT31;67755;51.986;5.696;2024-03-06T04:36:41;9.2;62.9
78461;SHT31;67755;51.986;5.696;2024-03-06T04:39:09;9.2;63.0
78461;SHT31;67755;51.986;5.696;2024-03-06T04:41:38;9.2;63.3
78461;SHT31;67755;51.986;5.696;2024-03-06T04:44:07;9.2;63.5
78461;SHT31;67755;51.986;5.696;2024-03-06T04:46:35;9.1;63.3
78461;SHT31;67755;51.986;5.696;2024-03-06T04:49:04;9.1;63.3
78461;SHT31;67755;51.986;5.696;2024-03-06T04:51:32;9.1;63.4
78461;SHT31;67755;51.986;5.696;2024-03-06T04:54:01;9.1;63.6
78461;SHT31;67755;51.986;5.696;2024-03-06T04:56:30;9.1;63.5
78461;SHT31;67755;51.986;5.696;2024-03-06T04:58:58;9.1;63.7
78461;SHT31;67755;51.986;5.696;2024-03-06T05:01:31;9.1;63.8
78461;SHT31;67755;51.986;5.696;2024-03-06T05:03:59;9.1;64.1
78461;SHT31;67755;51.986;5.696;2024-03-06T05:06:28;9.1;63.9
78461;SHT31;67755;51.986;5.696;2024-03-06T05:08:56;9.1;64.1
78461;SHT31;67755;51.986;5.696;2024-03-06T05:11:25;9.1;64.5
78461;SHT31;67755;51.986;5.696;2024-03-06T05:13:58;9.1;64.4
78461;SHT31;67755;51.986;5.696;2024-03-06T05:16:26;9.1;64.6
78461;SHT31;67755;51.986;5.696;2024-03-06T05:18:55;9.1;64.3
78461;SHT31;67755;51.986;5.696;2024-03-06T05:21:24;9.1;64.4
78461;SHT31;67755;51.986;5.696;2024-03-06T05:23:52;9.1;64.4
78461;SHT31;67755;51.986;5.696;2024-03-06T05:26:21;9.1;64.7
78461;SHT31;67755;51.986;5.696;2024-03-06T05:28:49;9.1;64.7
78461;SHT31;67755;51.986;5.696;2024-03-06T05:31:19;9.1;64.9
78461;SHT31;67755;51.986;5.696;2024-03-06T05:33:49;9.1;64.5
78461;SHT31;67755;51.986;5.696;2024-03-06T05:36:18;9.1;64.6
78461;SHT31;67755;51.986;5.696;2024-03-06T05:38:47;9.1;64.3
78461;SHT31;67755;51.986;5.696;2024-03-06T05:41:18;9.1;64.6
78461;SHT31;67755;51.986;5.696;2024-03-06T05:43:47;9.1;64.9
78461;SHT31;67755;51.986;5.696;2024-03-06T05:46:16;9.1;64.2
78461;SHT31;67755;51.986;5.696;2024-03-06T05:48:46;9.0;64.0
78461;SHT31;67755;51.986;5.696;2024-03-06T05:51:14;9.0;64.2
78461;SHT31;67755;51.986;5.696;2024-03-06T05:53:43;9.0;64.4
78461;SHT31;67755;51.986;5.696;2024-03-06T05:56:16;9.0;64.5
78461;SHT31;67755;51.986;5.696;2024-03-06T05:58:45;9.0;64.3
78461;SHT31;67755;51.986;5.696;2024-03-06T06:01:16;9.0;64.6
78461;SHT31;67755;51.986;5.696;2024-03-06T06:03:47;9.0;65.0
78461;SHT31;67755;51.986;5.696;2024-03-06T06:06:16;9.0;64.7
78461;SHT31;67755;51.986;5.696;2024-03-06T06:08:49;9.0;64.8
78461;SHT31;67755;51.986;5.696;2024-03-06T06:11:18;9.0;64.7
78461;SHT31;67755;51.986;5.696;2024-03-06T06:13:47;9.0;64.8
78461;SHT31;67755;51.986;5.696;2024-03-06T06:16:15;9.0;65.3
78461;SHT31;67755;51.986;5.696;2024-03-06T06:18:44;9.0;65.4
78461;SHT31;67755;51.986;5.696;2024-03-06T06:21:13;9.0;65.3
78461;SHT31;67755;51.986;5.696;2024-03-06T06:23:42;9.0;65.3
78461;SHT31;67755;51.986;5.696;2024-03-06T06:26:11;9.0;65.2
78461;SHT31;67755;51.986;5.696;2024-03-06T06:28:40;9.0;65.2
78461;SHT31;67755;51.986;5.696;2024-03-06T06:31:09;9.0;65.3
78461;SHT31;67755;51.986;5.696;2024-03-06T06:33:37;9.0;65.1
78461;SHT31;67755;51.986;5.696;2024-03-06T06:36:08;9.0;65.2
78461;SHT31;67755;51.986;5.696;2024-03-06T06:38:36;9.0;65.5
78461;SHT31;67755;51.986;5.696;2024-03-06T06:41:07;9.0;65.2
78461;SHT31;67755;51.986;5.696;2024-03-06T06:43:36;9.0;65.1
78461;SHT31;67755;51.986;5.696;2024-03-06T06:46:04;9.0;65.2
78461;SHT31;67755;51.986;5.696;2024-03-06T06:48:33;9.0;65.2
78461;SHT31;67755;51.986;5.696;2024-03-06T06:51:02;9.0;65.2
78461;SHT31;67755;51.986;5.696;2024-03-06T06:53:31;9.0;65.2
78461;SHT31;67755;51.986;5.696;2024-03-06T06:56:00;9.0;65.8
78461;SHT31;67755;51.986;5.696;2024-03-06T06:58:28;9.0;66.1
78461;SHT31;67755;51.986;5.696;2024-03-06T07:00:57;9.0;66.2
78461;SHT31;67755;51.986;5.696;2024-03-06T07:03:26;9.1;66.4
78461;SHT31;67755;51.986;5.696;2024-03-06T07:05:56;9.1;66.7
78461;SHT31;67755;51.986;5.696;2024-03-06T07:08:25;9.1;66.9
78461;SHT31;67755;51.986;5.696;2024-03-06T07:10:53;9.1;67.3
78461;SHT31;67755;51.986;5.696;2024-03-06T07:13:24;9.1;67.7
78461;SHT31;67755;51.986;5.696;2024-03-06T07:15:52;9.1;68.1
78461;SHT31;67755;51.986;5.696;2024-03-06T07:18:21;9.2;68.3
78461;SHT31;67755;51.986;5.696;2024-03-06T07:20:51;9.2;68.3
78461;SHT31;67755;51.986;5.696;2024-03-06T07:23:20;9.2;68.3
78461;SHT31;67755;51.986;5.696;2024-03-06T07:25:48;9.2;68.0
78461;SHT31;67755;51.986;5.696;2024-03-06T07:28:18;9.2;68.2
78461;SHT31;67755;51.986;5.696;2024-03-06T07:30:47;9.2;68.1
78461;SHT31;67755;51.986;5.696;2024-03-06T07:33:15;9.2;68.1
78461;SHT31;67755;51.986;5.696;2024-03-06T07:35:44;9.3;68.2
78461;SHT31;67755;51.986;5.696;2024-03-06T07:38:13;9.3;67.9
78461;SHT31;67755;51.986;5.696;2024-03-06T07:40:41;9.3;67.8
78461;SHT31;67755;51.986;5.696;2024-03-06T07:43:10;9.3;67.9
78461;SHT31;67755;51.986;5.696;2024-03-06T07:45:40;9.3;67.7
78461;SHT31;67755;51.986;5.696;2024-03-06T07:48:08;9.3;68.0
78461;SHT31;67755;51.986;5.696;2024-03-06T07:50:37;9.3;67.9
78461;SHT31;67755;51.986;5.696;2024-03-06T07:53:06;9.3;68.1
78461;SHT31;67755;51.986;5.696;2024-03-06T07:55:35;9.3;68.4
78461;SHT31;67755;51.986;5.696;2024-03-06T07:58:07;9.3;68.5
78461;SHT31;67755;51.986;5.696;2024-03-06T08:00:36;9.3;68.2
78461;SHT31;67755;51.986;5.696;2024-03-06T08:03:07;9.3;68.0
78461;SHT31;67755;51.986;5.696;2024-03-06T08:05:35;9.4;67.8
78461;SHT31;67755;51.986;5.696;2024-03-06T08:08:05;9.4;68.3
78461;SHT31;67755;51.986;5.696;2024-03-06T08:10:34;9.4;68.6
78461;SHT31;67755;51.986;5.696;2024-03-06T08:13:03;9.4;68.2
78461;SHT31;67755;51.986;5.696;2024-03-06T08:15:31;9.4;68.6
78461;SHT31;67755;51.986;5.696;2024-03-06T08:18:00;9.4;68.4
78461;SHT31;67755;51.986;5.696;2024-03-06T08:20:29;9.5;68.4
78461;SHT31;67755;51.986;5.696;2024-03-06T08:22:58;9.5;68.6
78461;SHT31;67755;51.986;5.696;2024-03-06T08:25:27;9.5;68.6
78461;SHT31;67755;51.986;5.696;2024-03-06T08:27:59;9.5;68.7
78461;SHT31;67755;51.986;5.696;2024-03-06T08:30:29;9.6;68.6
78461;SHT31;67755;51.986;5.696;2024-03-06T08:32:58;9.6;68.6
78461;SHT31;67755;51.986;5.696;2024-03-06T08:35:27;9.6;68.5
78461;SHT31;67755;51.986;5.696;2024-03-06T08:37:56;9.6;68.4
78461;SHT31;67755;51.986;5.696;2024-03-06T08:40:27;9.7;68.5
78461;SHT31;67755;51.986;5.696;2024-03-06T08:42:56;9.7;68.9
78461;SHT31;67755;51.986;5.696;2024-03-06T08:45:24;9.7;68.7
78461;SHT31;67755;51.986;5.696;2024-03-06T08:47:53;9.7;68.7
78461;SHT31;67755;51.986;5.696;2024-03-06T08:50:22;9.7;68.9
78461;SHT31;67755;51.986;5.696;2024-03-06T08:52:51;9.8;69.2
78461;SHT31;67755;51.986;5.696;2024-03-06T08:55:19;9.8;69.2
78461;SHT31;67755;51.986;5.696;2024-03-06T08:57:48;9.8;69.8
78461;SHT31;67755;51.986;5.696;2024-03-06T09:00:19;9.8;69.8
78461;SHT31;67755;51.986;5.696;2024-03-06T09:02:48;9.9;69.9
78461;SHT31;67755;51.986;5.696;2024-03-06T09:05:17;9.9;69.7
78461;SHT31;67755;51.986;5.696;2024-03-06T09:07:47;9.9;70.2
78461;SHT31;67755;51.986;5.696;2024-03-06T09:10:15;9.9;70.6
78461;SHT31;67755;51.986;5.696;2024-03-06T09:12:45;10.0;70.7
78461;SHT31;67755;51.986;5.696;2024-03-06T09:15:14;10.0;70.5
78461;SHT31;67755;51.986;5.696;2024-03-06T09:17:44;10.0;71.2
78461;SHT31;67755;51.986;5.696;2024-03-06T09:20:13;10.1;71.0
78461;SHT31;67755;51.986;5.696;2024-03-06T09:22:42;10.1;70.9
78461;SHT31;67755;51.986;5.696;2024-03-06T09:25:12;10.1;70.4
78461;SHT31;67755;51.986;5.696;2024-03-06T09:27:41;10.2;71.2
78461;SHT31;67755;51.986;5.696;2024-03-06T09:30:11;10.2;71.6
78461;SHT31;67755;51.986;5.696;2024-03-06T09:32:40;10.2;71.3
78461;SHT31;67755;51.986;5.696;2024-03-06T09:35:10;10.3;71.0
78461;SHT31;67755;51.986;5.696;2024-03-06T09:37:39;10.3;71.1
78461;SHT31;67755;51.986;5.696;2024-03-06T09:40:11;10.4;71.2
78461;SHT31;67755;51.986;5.696;2024-03-06T09:42:45;10.4;71.1
78461;SHT31;67755;51.986;5.696;2024-03-06T09:45:15;10.4;71.2
78461;SHT31;67755;51.986;5.696;2024-03-06T09:47:47;10.5;71.5
78461;SHT31;67755;51.986;5.696;2024-03-06T09:50:23;10.5;71.2
78461;SHT31;67755;51.986;5.696;2024-03-06T09:52:55;10.6;71.2
78461;SHT31;67755;51.986;5.696;2024-03-06T09:55:25;10.6;71.0
78461;SHT31;67755;51.986;5.696;2024-03-06T09:57:54;10.7;71.3
78461;SHT31;67755;51.986;5.696;2024-03-06T10:00:23;10.7;70.9
78461;SHT31;67755;51.986;5.696;2024-03-06T10:02:57;10.7;71.0
78461;SHT31;67755;51.986;5.696;2024-03-06T10:05:26;10.8;71.0
78461;SHT31;67755;51.986;5.696;2024-03-06T10:07:56;10.8;71.0
78461;SHT31;67755;51.986;5.696;2024-03-06T10:10:25;10.8;70.7
78461;SHT31;67755;51.986;5.696;2024-03-06T10:12:54;10.9;70.8
78461;SHT31;67755;51.986;5.696;2024-03-06T10:15:27;10.9;70.5
78461;SHT31;67755;51.986;5.696;2024-03-06T10:18:12;10.9;70.1
78461;SHT31;67755;51.986;5.696;2024-03-06T10:20:41;11.0;70.2
78461;SHT31;67755;51.986;5.696;2024-03-06T10:23:11;11.0;70.8
78461;SHT31;67755;51.986;5.696;2024-03-06T10:25:42;11.0;69.6
78461;SHT31;67755;51.986;5.696;2024-03-06T10:28:12;11.0;70.1
78461;SHT31;67755;51.986;5.696;2024-03-06T10:30:42;11.0;69.7
78461;SHT31;67755;51.986;5.696;2024-03-06T10:33:15;11.1;70.3
78461;SHT31;67755;51.986;5.696;2024-03-06T10:35:47;11.1;69.4
78461;SHT31;67755;51.986;5.696;2024-03-06T10:38:17;11.1;68.9
78461;SHT31;67755;51.986;5.696;2024-03-06T10:40:48;11.1;69.5
78461;SHT31;67755;51.986;5.696;2024-03-06T10:43:23;11.1;69.6
78461;SHT31;67755;51.986;5.696;2024-03-06T10:46:00;11.1;69.9
78461;SHT31;67755;51.986;5.696;2024-03-06T10:48:31;11.2;69.8
78461;SHT31;67755;51.986;5.696;2024-03-06T10:51:03;11.2;69.7
78461;SHT31;67755;51.986;5.696;2024-03-06T10:53:36;11.2;69.6
78461;SHT31;67755;51.986;5.696;2024-03-06T10:56:08;11.3;68.7
78461;SHT31;67755;51.986;5.696;2024-03-06T10:58:38;11.3;68.3
78461;SHT31;67755;51.986;5.696;2024-03-06T11:01:08;11.3;69.1
78461;SHT31;67755;51.986;5.696;2024-03-06T11:03:39;11.3;68.9
78461;SHT31;67755;51.986;5.696;2024-03-06T11:06:10;11.4;68.7
78461;SHT31;67755;51.986;5.696;2024-03-06T11:08:39;11.4;68.5
78461;SHT31;67755;51.986;5.696;2024-03-06T11:11:24;11.4;68.8
78461;SHT31;67755;51.986;5.696;2024-03-06T11:13:54;11.4;68.8
78461;SHT31;67755;51.986;5.696;2024-03-06T11:16:29;11.5;68.7
78461;SHT31;67755;51.986;5.696;2024-03-06T11:19:09;11.5;69.6
78461;SHT31;67755;51.986;5.696;2024-03-06T11:21:47;11.6;69.1
78461;SHT31;67755;51.986;5.696;2024-03-06T11:24:23;11.6;69.0
78461;SHT31;67755;51.986;5.696;2024-03-06T11:26:56;11.6;67.9
78461;SHT31;67755;51.986;5.696;2024-03-06T11:29:28;11.7;69.1
78461;SHT31;67755;51.986;5.696;2024-03-06T11:32:03;11.7;68.5
78461;SHT31;67755;51.986;5.696;2024-03-06T11:34:36;11.8;68.0
78461;SHT31;67755;51.986;5.696;2024-03-06T11:37:07;11.8;68.1
78461;SHT31;67755;51.986;5.696;2024-03-06T11:39:38;11.8;67.9
78461;SHT31;67755;51.986;5.696;2024-03-06T11:42:14;11.9;67.4
78461;SHT31;67755;51.986;5.696;2024-03-06T11:44:54;11.9;67.1
78461;SHT31;67755;51.986;5.696;2024-03-06T11:47:23;11.9;67.8
78461;SHT31;67755;51.986;5.696;2024-03-06T11:49:53;11.9;67.4
78461;SHT31;67755;51.986;5.696;2024-03-06T11:52:22;12.0;66.6
78461;SHT31;67755;51.986;5.696;2024-03-06T11:54:51;12.0;67.0
78461;SHT31;67755;51.986;5.696;2024-03-06T11:57:21;12.0;67.3
78461;SHT31;67755;51.986;5.696;2024-03-06T11:59:52;12.1;67.4
78461;SHT31;67755;51.986;5.696;2024-03-06T12:02:22;12.1;66.9
78461;SHT31;67755;51.986;5.696;2024-03-06T12:04:50;12.1;67.2
78461;SHT31;67755;51.986;5.696;2024-03-06T12:07:20;12.1;66.8
78461;SHT31;67755;51.986;5.696;2024-03-06T12:09:49;12.2;66.7
78461;SHT31;67755;51.986;5.696;2024-03-06T12:12:18;12.2;68.2
78461;SHT31;67755;51.986;5.696;2024-03-06T12:14:59;12.2;67.1
78461;SHT31;67755;51.986;5.696;2024-03-06T12:17:30;12.2;67.4
78461;SHT31;67755;51.986;5.696;2024-03-06T12:20:01;12.3;67.1
78461;SHT31;67755;51.986;5.696;2024-03-06T12:22:31;12.3;67.0
78461;SHT31;67755;51.986;5.696;2024-03-06T12:25:01;12.3;66.7
78461;SHT31;67755;51.986;5.696;2024-03-06T12:27:31;12.4;66.6
78461;SHT31;67755;51.986;5.696;2024-03-06T12:30:00;12.4;67.9
78461;SHT31;67755;51.986;5.696;2024-03-06T12:32:31;12.4;67.1
78461;SHT31;67755;51.986;5.696;2024-03-06T12:35:01;12.5;67.4
78461;SHT31;67755;51.986;5.696;2024-03-06T12:37:31;12.5;66.3
78461;SHT31;67755;51.986;5.696;2024-03-06T12:40:00;12.6;66.5
78461;SHT31;67755;51.986;5.696;2024-03-06T12:42:30;12.6;66.8
78461;SHT31;67755;51.986;5.696;2024-03-06T12:44:59;12.6;66.6
78461;SHT31;67755;51.986;5.696;2024-03-06T12:47:29;12.7;65.3
78461;SHT31;67755;51.986;5.696;2024-03-06T12:49:58;12.7;66.0
78461;SHT31;67755;51.986;5.696;2024-03-06T12:52:26;12.8;66.2
78461;SHT31;67755;51.986;5.696;2024-03-06T12:54:55;12.8;64.8
78461;SHT31;67755;51.986;5.696;2024-03-06T12:57:25;12.9;63.5
78461;SHT31;67755;51.986;5.696;2024-03-06T12:59:56;12.9;63.6
78461;SHT31;67755;51.986;5.696;2024-03-06T13:02:25;12.9;64.9
78461;SHT31;67755;51.986;5.696;2024-03-06T13:04:53;13.0;63.4
78461;SHT31;67755;51.986;5.696;2024-03-06T13:07:22;13.0;64.1
78461;SHT31;67755;51.986;5.696;2024-03-06T13:09:53;13.1;65.7
78461;SHT31;67755;51.986;5.696;2024-03-06T13:12:22;13.1;62.9
78461;SHT31;67755;51.986;5.696;2024-03-06T13:14:50;13.2;63.0
78461;SHT31;67755;51.986;5.696;2024-03-06T13:17:20;13.2;64.3
78461;SHT31;67755;51.986;5.696;2024-03-06T13:19:52;13.3;63.0
78461;SHT31;67755;51.986;5.696;2024-03-06T13:22:21;13.4;61.7
78461;SHT31;67755;51.986;5.696;2024-03-06T13:24:50;13.4;61.2
78461;SHT31;67755;51.986;5.696;2024-03-06T13:27:19;13.5;60.8
78461;SHT31;67755;51.986;5.696;2024-03-06T13:29:47;13.6;60.3
78461;SHT31;67755;51.986;5.696;2024-03-06T13:32:17;13.6;58.5
78461;SHT31;67755;51.986;5.696;2024-03-06T13:34:46;13.7;58.3
78461;SHT31;67755;51.986;5.696;2024-03-06T13:37:15;13.8;57.4
78461;SHT31;67755;51.986;5.696;2024-03-06T13:39:45;13.8;58.3
78461;SHT31;67755;51.986;5.696;2024-03-06T13:42:15;13.9;57.1
78461;SHT31;67755;51.986;5.696;2024-03-06T13:44:44;13.9;56.5
78461;SHT31;67755;51.986;5.696;2024-03-06T13:47:15;13.9;56.5
78461;SHT31;67755;51.986;5.696;2024-03-06T13:49:45;14.0;56.5
78461;SHT31;67755;51.986;5.696;2024-03-06T13:52:13;14.0;56.7
78461;SHT31;67755;51.986;5.696;2024-03-06T13:54:46;14.1;57.1
78461;SHT31;67755;51.986;5.696;2024-03-06T13:57:16;14.1;57.3
78461;SHT31;67755;51.986;5.696;2024-03-06T13:59:46;14.1;56.1
78461;SHT31;67755;51.986;5.696;2024-03-06T14:02:14;14.2;56.2
78461;SHT31;67755;51.986;5.696;2024-03-06T14:04:43;14.2;55.2
78461;SHT31;67755;51.986;5.696;2024-03-06T14:07:12;14.2;54.3
78461;SHT31;67755;51.986;5.696;2024-03-06T14:09:43;14.3;54.9
78461;SHT31;67755;51.986;5.696;2024-03-06T14:12:13;14.3;54.7
78461;SHT31;67755;51.986;5.696;2024-03-06T14:14:42;14.3;54.6
78461;SHT31;67755;51.986;5.696;2024-03-06T14:17:13;14.4;55.6
78461;SHT31;67755;51.986;5.696;2024-03-06T14:19:41;14.4;54.4
78461;SHT31;67755;51.986;5.696;2024-03-06T14:22:12;14.4;54.4
78461;SHT31;67755;51.986;5.696;2024-03-06T14:24:40;14.4;54.7
78461;SHT31;67755;51.986;5.696;2024-03-06T14:27:09;14.4;55.3
78461;SHT31;67755;51.986;5.696;2024-03-06T14:29:37;14.5;54.4
78461;SHT31;67755;51.986;5.696;2024-03-06T14:32:06;14.5;53.7
78461;SHT31;67755;51.986;5.696;2024-03-06T14:34:36;14.5;54.6
78461;SHT31;67755;51.986;5.696;2024-03-06T14:37:05;14.5;51.9
78461;SHT31;67755;51.986;5.696;2024-03-06T14:39:34;14.5;53.0
78461;SHT31;67755;51.986;5.696;2024-03-06T14:42:03;14.5;53.7
78461;SHT31;67755;51.986;5.696;2024-03-06T14:44:31;14.5;51.9
78461;SHT31;67755;51.986;5.696;2024-03-06T14:47:00;14.5;54.1
78461;SHT31;67755;51.986;5.696;2024-03-06T14:49:29;14.5;54.6
78461;SHT31;67755;51.986;5.696;2024-03-06T14:51:59;14.5;52.7
78461;SHT31;67755;51.986;5.696;2024-03-06T14:54:28;14.5;53.6
78461;SHT31;67755;51.986;5.696;2024-03-06T14:56:57;14.5;53.1
78461;SHT31;67755;51.986;5.696;2024-03-06T14:59:26;14.5;51.9
78461;SHT31;67755;51.986;5.696;2024-03-06T15:01:54;14.5;52.1
78461;SHT31;67755;51.986;5.696;2024-03-06T15:04:23;14.5;51.5
78461;SHT31;67755;51.986;5.696;2024-03-06T15:06:52;14.5;53.2
78461;SHT31;67755;51.986;5.696;2024-03-06T15:09:20;14.5;53.2
78461;SHT31;67755;51.986;5.696;2024-03-06T15:11:52;14.5;51.4
78461;SHT31;67755;51.986;5.696;2024-03-06T15:14:24;14.5;52.5
78461;SHT31;67755;51.986;5.696;2024-03-06T15:16:53;14.5;52.4
78461;SHT31;67755;51.986;5.696;2024-03-06T15:19:22;14.5;52.1
78461;SHT31;67755;51.986;5.696;2024-03-06T15:21:50;14.5;52.2
78461;SHT31;67755;51.986;5.696;2024-03-06T15:24:20;14.4;52.5
78461;SHT31;67755;51.986;5.696;2024-03-06T15:26:50;14.4;51.9
78461;SHT31;67755;51.986;5.696;2024-03-06T15:29:19;14.4;52.8
78461;SHT31;67755;51.986;5.696;2024-03-06T15:31:48;14.4;52.4
78461;SHT31;67755;51.986;5.696;2024-03-06T15:34:16;14.4;52.8
78461;SHT31;67755;51.986;5.696;2024-03-06T15:36:45;14.3;52.4
78461;SHT31;67755;51.986;5.696;2024-03-06T15:39:15;14.3;54.9
78461;SHT31;67755;51.986;5.696;2024-03-06T15:41:47;14.3;54.9
78461;SHT31;67755;51.986;5.696;2024-03-06T15:44:15;14.3;54.7
78461;SHT31;67755;51.986;5.696;2024-03-06T15:46:44;14.3;54.1
78461;SHT31;67755;51.986;5.696;2024-03-06T15:49:22;14.3;52.9
78461;SHT31;67755;51.986;5.696;2024-03-06T15:51:52;14.3;54.9
78461;SHT31;67755;51.986;5.696;2024-03-06T15:54:22;14.2;54.2
78461;SHT31;67755;51.986;5.696;2024-03-06T15:56:51;14.2;55.3
78461;SHT31;67755;51.986;5.696;2024-03-06T15:59:21;14.2;54.5
78461;SHT31;67755;51.986;5.696;2024-03-06T16:01:50;14.2;55.9
78461;SHT31;67755;51.986;5.696;2024-03-06T16:04:18;14.2;56.4
78461;SHT31;67755;51.986;5.696;2024-03-06T16:06:47;14.1;56.9
78461;SHT31;67755;51.986;5.696;2024-03-06T16:09:16;14.1;56.7
78461;SHT31;67755;51.986;5.696;2024-03-06T16:11:45;14.1;56.9
78461;SHT31;67755;51.986;5.696;2024-03-06T16:14:14;14.1;57.5
78461;SHT31;67755;51.986;5.696;2024-03-06T16:16:43;14.1;57.2
78461;SHT31;67755;51.986;5.696;2024-03-06T16:19:12;14.0;56.1
78461;SHT31;67755;51.986;5.696;2024-03-06T16:21:42;14.0;56.2
78461;SHT31;67755;51.986;5.696;2024-03-06T16:24:14;14.0;56.4